Etusivu
METAR-TAF:

METAR-TAF

Lentoasemat :

New Ulm Municipal Airport

New Ulm, Minnesota, Yhdysvallat

Leveyspiiri: 44-19N, Pituuspiiri: 094-30W, korkeus merenpinnasta: 308 m

Tämänhetkinen sää

Tämä raportti tehtiin 25 minuuttia sitten, kello 09.15 UTC
Tuuli 11 kn luoteesta
Lämpötila -7°C
Kosteus 86%
Ilmanpaine 1020 hPa
Näkyvyys: 16.1 km
Hajanaisia pilviä 2700 ft:n korkeudessa
Hajanaisia pilviä 3200 ft:n korkeudessa
Pilvistä 4400 ft:n korkeudessa
heikkoa lumisadetta

METAR: KULM 180915Z AUTO 31011KT 10SM -SN SCT027 SCT032 OVC044 M07/M09 A3012 RMK AO2

Aika: 03:40 (09:40 UTC)


TAF: puuttuu

Säähavainnot ja -ennusteet yli 4000 lentoasemalta (METAR- ja TAF-raportit).

Käytössä olevat sääasemat on merkitty karttaan keltaisilla ja punaisilla pisteillä.

Aseta hiiri pisteen päälle nähdäksesi sääaseman nimen.

Klikkaa sitten nähdäksesi säähavainnot ja -ennusteet.

Kartan vaihtaminen: klikkaa mustalla rastilla varustettuja vihreitä pisteitä, niin voit zoomata sisään; viivalla varustettua vihreää pistettä, niin voit zoomata ulos tai vihreitä nuolia, niin pääset viereisille kartoille.


METAR-TAF: